sensor_id;sensor_type;location;lat;lon;timestamp;temperature;humidity
20233;DHT22;37438;55.674;13.074;2023-07-16T00:01:36;23.50;99.90
20233;DHT22;37438;55.674;13.074;2023-07-16T00:04:42;23.40;1.00
20233;DHT22;37438;55.674;13.074;2023-07-16T00:07:47;23.40;12.60
20233;DHT22;37438;55.674;13.074;2023-07-16T00:10:51;23.40;99.90
20233;DHT22;37438;55.674;13.074;2023-07-16T00:13:56;23.30;99.90
20233;DHT22;37438;55.674;13.074;2023-07-16T00:17:00;23.30;99.90
20233;DHT22;37438;55.674;13.074;2023-07-16T00:20:05;23.30;99.90
20233;DHT22;37438;55.674;13.074;2023-07-16T00:23:10;23.20;99.90
20233;DHT22;37438;55.674;13.074;2023-07-16T00:26:15;23.20;1.00
20233;DHT22;37438;55.674;13.074;2023-07-16T00:29:21;23.20;1.00
20233;DHT22;37438;55.674;13.074;2023-07-16T00:32:25;23.10;51.00
20233;DHT22;37438;55.674;13.074;2023-07-16T00:35:30;23.00;99.90
20233;DHT22;37438;55.674;13.074;2023-07-16T00:38:34;22.90;99.90
20233;DHT22;37438;55.674;13.074;2023-07-16T00:41:38;22.90;99.90
20233;DHT22;37438;55.674;13.074;2023-07-16T00:44:44;22.80;99.90
20233;DHT22;37438;55.674;13.074;2023-07-16T00:47:48;22.80;99.90
20233;DHT22;37438;55.674;13.074;2023-07-16T00:50:54;22.70;99.90
20233;DHT22;37438;55.674;13.074;2023-07-16T00:53:58;22.70;99.90
20233;DHT22;37438;55.674;13.074;2023-07-16T00:57:03;22.70;99.90
20233;DHT22;37438;55.674;13.074;2023-07-16T01:00:08;22.80;99.90
20233;DHT22;37438;55.674;13.074;2023-07-16T01:03:15;22.70;99.90
20233;DHT22;37438;55.674;13.074;2023-07-16T01:09:38;22.80;99.90
20233;DHT22;37438;55.674;13.074;2023-07-16T01:12:44;22.90;99.90
20233;DHT22;37438;55.674;13.074;2023-07-16T01:15:49;22.90;99.90
20233;DHT22;37438;55.674;13.074;2023-07-16T01:18:54;22.80;99.90
20233;DHT22;37438;55.674;13.074;2023-07-16T01:28:28;22.00;99.90
20233;DHT22;37438;55.674;13.074;2023-07-16T01:31:36;21.90;99.90
20233;DHT22;37438;55.674;13.074;2023-07-16T01:34:43;21.60;99.90
20233;DHT22;37438;55.674;13.074;2023-07-16T01:37:48;21.50;99.90
20233;DHT22;37438;55.674;13.074;2023-07-16T01:40:52;21.40;99.90
20233;DHT22;37438;55.674;13.074;2023-07-16T01:43:57;21.30;99.90
20233;DHT22;37438;55.674;13.074;2023-07-16T01:47:11;21.30;99.90
20233;DHT22;37438;55.674;13.074;2023-07-16T01:50:16;21.20;99.90
20233;DHT22;37438;55.674;13.074;2023-07-16T01:53:21;21.20;99.90
20233;DHT22;37438;55.674;13.074;2023-07-16T01:56:26;21.20;99.90
20233;DHT22;37438;55.674;13.074;2023-07-16T01:59:30;21.10;99.90
20233;DHT22;37438;55.674;13.074;2023-07-16T02:02:35;21.00;99.90
20233;DHT22;37438;55.674;13.074;2023-07-16T02:05:40;20.90;99.90
20233;DHT22;37438;55.674;13.074;2023-07-16T02:08:44;20.90;99.90
20233;DHT22;37438;55.674;13.074;2023-07-16T02:11:49;20.90;99.90
20233;DHT22;37438;55.674;13.074;2023-07-16T02:14:54;20.90;99.90
20233;DHT22;37438;55.674;13.074;2023-07-16T02:17:58;20.80;99.90
20233;DHT22;37438;55.674;13.074;2023-07-16T02:21:03;20.80;99.90
20233;DHT22;37438;55.674;13.074;2023-07-16T02:24:08;20.70;99.90
20233;DHT22;37438;55.674;13.074;2023-07-16T02:27:13;20.70;99.90
20233;DHT22;37438;55.674;13.074;2023-07-16T02:30:17;20.70;99.90
20233;DHT22;37438;55.674;13.074;2023-07-16T02:33:22;20.60;99.90
20233;DHT22;37438;55.674;13.074;2023-07-16T02:36:26;20.60;99.90
20233;DHT22;37438;55.674;13.074;2023-07-16T02:39:31;20.60;99.90
20233;DHT22;37438;55.674;13.074;2023-07-16T02:42:35;20.70;99.90
20233;DHT22;37438;55.674;13.074;2023-07-16T02:45:40;20.70;99.90
20233;DHT22;37438;55.674;13.074;2023-07-16T02:48:45;20.60;99.90
20233;DHT22;37438;55.674;13.074;2023-07-16T02:51:49;20.60;99.90
20233;DHT22;37438;55.674;13.074;2023-07-16T02:54:54;20.60;99.90
20233;DHT22;37438;55.674;13.074;2023-07-16T02:57:58;20.60;99.90
20233;DHT22;37438;55.674;13.074;2023-07-16T03:01:06;20.70;99.90
20233;DHT22;37438;55.674;13.074;2023-07-16T03:04:10;20.60;99.90
20233;DHT22;37438;55.674;13.074;2023-07-16T03:07:15;20.40;99.90
20233;DHT22;37438;55.674;13.074;2023-07-16T03:10:21;20.30;99.90
20233;DHT22;37438;55.674;13.074;2023-07-16T03:13:26;20.20;99.90
20233;DHT22;37438;55.674;13.074;2023-07-16T03:16:30;20.20;99.90
20233;DHT22;37438;55.674;13.074;2023-07-16T03:19:35;20.10;99.90
20233;DHT22;37438;55.674;13.074;2023-07-16T03:22:39;20.10;99.90
20233;DHT22;37438;55.674;13.074;2023-07-16T03:25:44;20.10;99.90
20233;DHT22;37438;55.674;13.074;2023-07-16T03:28:49;20.10;99.90
20233;DHT22;37438;55.674;13.074;2023-07-16T03:31:54;20.00;99.90
20233;DHT22;37438;55.674;13.074;2023-07-16T03:34:59;20.10;99.90
20233;DHT22;37438;55.674;13.074;2023-07-16T03:38:04;20.00;99.90
20233;DHT22;37438;55.674;13.074;2023-07-16T03:41:08;20.00;99.90
20233;DHT22;37438;55.674;13.074;2023-07-16T03:44:13;20.00;99.90
20233;DHT22;37438;55.674;13.074;2023-07-16T03:47:17;19.90;99.90
20233;DHT22;37438;55.674;13.074;2023-07-16T03:50:22;19.80;99.90
20233;DHT22;37438;55.674;13.074;2023-07-16T03:53:26;19.70;99.90
20233;DHT22;37438;55.674;13.074;2023-07-16T03:56:31;19.50;99.90
20233;DHT22;37438;55.674;13.074;2023-07-16T03:59:35;19.40;99.90
20233;DHT22;37438;55.674;13.074;2023-07-16T04:02:41;19.30;99.90
20233;DHT22;37438;55.674;13.074;2023-07-16T04:05:50;19.10;99.90
20233;DHT22;37438;55.674;13.074;2023-07-16T04:08:55;19.10;99.90
20233;DHT22;37438;55.674;13.074;2023-07-16T04:11:59;19.10;99.90
20233;DHT22;37438;55.674;13.074;2023-07-16T04:15:06;19.10;99.90
20233;DHT22;37438;55.674;13.074;2023-07-16T04:18:11;19.00;99.90
20233;DHT22;37438;55.674;13.074;2023-07-16T04:21:15;18.90;99.90
20233;DHT22;37438;55.674;13.074;2023-07-16T04:24:20;18.70;99.90
20233;DHT22;37438;55.674;13.074;2023-07-16T04:27:24;18.70;99.90
20233;DHT22;37438;55.674;13.074;2023-07-16T04:30:29;18.70;99.90
20233;DHT22;37438;55.674;13.074;2023-07-16T04:33:33;18.50;99.90
20233;DHT22;37438;55.674;13.074;2023-07-16T04:36:38;18.50;99.90
20233;DHT22;37438;55.674;13.074;2023-07-16T04:39:42;18.40;99.90
20233;DHT22;37438;55.674;13.074;2023-07-16T04:42:47;18.40;99.90
20233;DHT22;37438;55.674;13.074;2023-07-16T04:45:51;18.40;99.90
20233;DHT22;37438;55.674;13.074;2023-07-16T04:48:56;18.40;99.90
20233;DHT22;37438;55.674;13.074;2023-07-16T04:52:00;18.30;99.90
20233;DHT22;37438;55.674;13.074;2023-07-16T04:55:05;18.20;99.90
20233;DHT22;37438;55.674;13.074;2023-07-16T04:58:11;18.20;99.90
20233;DHT22;37438;55.674;13.074;2023-07-16T05:01:15;18.30;99.90
20233;DHT22;37438;55.674;13.074;2023-07-16T05:04:20;18.30;99.90
20233;DHT22;37438;55.674;13.074;2023-07-16T05:07:24;18.30;99.90
20233;DHT22;37438;55.674;13.074;2023-07-16T05:10:29;18.30;99.90
20233;DHT22;37438;55.674;13.074;2023-07-16T05:13:33;18.40;99.90
20233;DHT22;37438;55.674;13.074;2023-07-16T05:16:38;18.30;99.90
20233;DHT22;37438;55.674;13.074;2023-07-16T05:19:42;18.30;99.90
20233;DHT22;37438;55.674;13.074;2023-07-16T05:22:47;18.30;99.90
20233;DHT22;37438;55.674;13.074;2023-07-16T05:25:51;18.30;99.90
20233;DHT22;37438;55.674;13.074;2023-07-16T05:28:56;18.30;99.90
20233;DHT22;37438;55.674;13.074;2023-07-16T05:32:01;18.20;99.90
20233;DHT22;37438;55.674;13.074;2023-07-16T05:35:05;18.30;99.90
20233;DHT22;37438;55.674;13.074;2023-07-16T05:38:10;18.30;99.90
20233;DHT22;37438;55.674;13.074;2023-07-16T05:41:15;18.30;99.90
20233;DHT22;37438;55.674;13.074;2023-07-16T05:44:20;18.30;99.90
20233;DHT22;37438;55.674;13.074;2023-07-16T05:47:24;18.30;99.90
20233;DHT22;37438;55.674;13.074;2023-07-16T05:50:29;18.40;99.90
20233;DHT22;37438;55.674;13.074;2023-07-16T05:53:33;18.30;99.90
20233;DHT22;37438;55.674;13.074;2023-07-16T05:56:38;18.30;99.90
20233;DHT22;37438;55.674;13.074;2023-07-16T05:59:42;18.30;99.90
20233;DHT22;37438;55.674;13.074;2023-07-16T06:02:46;18.40;99.90
20233;DHT22;37438;55.674;13.074;2023-07-16T06:05:51;18.40;99.90
20233;DHT22;37438;55.674;13.074;2023-07-16T06:08:56;18.40;99.90
20233;DHT22;37438;55.674;13.074;2023-07-16T06:12:00;18.50;99.90
20233;DHT22;37438;55.674;13.074;2023-07-16T06:15:05;18.50;99.90
20233;DHT22;37438;55.674;13.074;2023-07-16T06:18:09;18.60;99.90
20233;DHT22;37438;55.674;13.074;2023-07-16T06:21:14;18.60;99.90
20233;DHT22;37438;55.674;13.074;2023-07-16T06:24:18;18.60;99.90
20233;DHT22;37438;55.674;13.074;2023-07-16T06:27:23;18.70;99.90
20233;DHT22;37438;55.674;13.074;2023-07-16T06:30:27;18.70;99.90
20233;DHT22;37438;55.674;13.074;2023-07-16T06:33:32;18.70;99.90
20233;DHT22;37438;55.674;13.074;2023-07-16T06:36:38;18.80;99.90
20233;DHT22;37438;55.674;13.074;2023-07-16T06:39:43;18.80;99.90
20233;DHT22;37438;55.674;13.074;2023-07-16T06:42:47;18.90;99.90
20233;DHT22;37438;55.674;13.074;2023-07-16T06:45:52;18.80;99.90
20233;DHT22;37438;55.674;13.074;2023-07-16T06:48:56;18.90;99.90
20233;DHT22;37438;55.674;13.074;2023-07-16T06:52:00;19.00;99.90
20233;DHT22;37438;55.674;13.074;2023-07-16T06:55:06;19.00;99.90
20233;DHT22;37438;55.674;13.074;2023-07-16T06:58:11;19.00;99.90
20233;DHT22;37438;55.674;13.074;2023-07-16T07:01:15;19.10;99.90
20233;DHT22;37438;55.674;13.074;2023-07-16T07:04:20;19.20;99.90
20233;DHT22;37438;55.674;13.074;2023-07-16T07:07:24;19.50;99.90
20233;DHT22;37438;55.674;13.074;2023-07-16T07:10:29;19.60;99.90
20233;DHT22;37438;55.674;13.074;2023-07-16T07:13:34;19.50;99.90
20233;DHT22;37438;55.674;13.074;2023-07-16T07:16:38;19.40;99.90
20233;DHT22;37438;55.674;13.074;2023-07-16T07:19:44;19.20;99.90
20233;DHT22;37438;55.674;13.074;2023-07-16T07:22:48;19.30;99.90
20233;DHT22;37438;55.674;13.074;2023-07-16T07:25:53;19.30;99.90
20233;DHT22;37438;55.674;13.074;2023-07-16T07:28:57;19.40;99.90
20233;DHT22;37438;55.674;13.074;2023-07-16T07:32:02;19.30;99.90
20233;DHT22;37438;55.674;13.074;2023-07-16T07:35:06;19.40;99.90
20233;DHT22;37438;55.674;13.074;2023-07-16T07:38:11;19.30;99.90
20233;DHT22;37438;55.674;13.074;2023-07-16T07:41:15;19.50;99.90
20233;DHT22;37438;55.674;13.074;2023-07-16T07:44:20;20.20;99.90
20233;DHT22;37438;55.674;13.074;2023-07-16T07:47:24;21.00;99.90
20233;DHT22;37438;55.674;13.074;2023-07-16T07:50:29;20.80;99.90
20233;DHT22;37438;55.674;13.074;2023-07-16T07:53:34;20.80;99.90
20233;DHT22;37438;55.674;13.074;2023-07-16T07:56:38;21.30;99.90
20233;DHT22;37438;55.674;13.074;2023-07-16T07:59:43;21.30;99.90
20233;DHT22;37438;55.674;13.074;2023-07-16T08:02:47;21.10;99.90
20233;DHT22;37438;55.674;13.074;2023-07-16T08:05:52;21.70;99.90
20233;DHT22;37438;55.674;13.074;2023-07-16T08:08:57;22.10;13.80
20233;DHT22;37438;55.674;13.074;2023-07-16T08:12:01;21.80;99.90
20233;DHT22;37438;55.674;13.074;2023-07-16T08:15:06;21.80;1.00
20233;DHT22;37438;55.674;13.074;2023-07-16T08:18:12;22.20;87.30
20233;DHT22;37438;55.674;13.074;2023-07-16T08:21:16;22.10;1.00
20233;DHT22;37438;55.674;13.074;2023-07-16T08:24:24;22.30;99.90
20233;DHT22;37438;55.674;13.074;2023-07-16T08:27:29;22.30;49.50
20233;DHT22;37438;55.674;13.074;2023-07-16T08:30:34;22.10;2.40
20233;DHT22;37438;55.674;13.074;2023-07-16T08:33:39;22.20;1.00
20233;DHT22;37438;55.674;13.074;2023-07-16T08:36:43;22.10;99.90
20233;DHT22;37438;55.674;13.074;2023-07-16T08:39:51;22.30;99.90
20233;DHT22;37438;55.674;13.074;2023-07-16T08:42:55;22.30;99.90
20233;DHT22;37438;55.674;13.074;2023-07-16T08:46:00;22.10;99.90
20233;DHT22;37438;55.674;13.074;2023-07-16T08:49:07;22.30;53.90
20233;DHT22;37438;55.674;13.074;2023-07-16T08:52:12;22.40;1.00
20233;DHT22;37438;55.674;13.074;2023-07-16T08:55:16;22.20;99.90
20233;DHT22;37438;55.674;13.074;2023-07-16T08:58:22;22.60;99.90
20233;DHT22;37438;55.674;13.074;2023-07-16T09:01:27;22.90;99.90
20233;DHT22;37438;55.674;13.074;2023-07-16T09:04:32;23.20;99.90
20233;DHT22;37438;55.674;13.074;2023-07-16T09:07:36;23.30;1.00
20233;DHT22;37438;55.674;13.074;2023-07-16T09:10:42;23.00;99.90
20233;DHT22;37438;55.674;13.074;2023-07-16T09:13:46;23.30;99.90
20233;DHT22;37438;55.674;13.074;2023-07-16T09:16:51;23.10;99.90
20233;DHT22;37438;55.674;13.074;2023-07-16T09:19:55;23.10;53.30
20233;DHT22;37438;55.674;13.074;2023-07-16T09:23:00;22.50;99.90
20233;DHT22;37438;55.674;13.074;2023-07-16T09:26:05;22.80;99.90
20233;DHT22;37438;55.674;13.074;2023-07-16T09:29:09;23.20;99.90
20233;DHT22;37438;55.674;13.074;2023-07-16T09:32:13;23.20;1.00
20233;DHT22;37438;55.674;13.074;2023-07-16T09:35:19;23.50;1.00
20233;DHT22;37438;55.674;13.074;2023-07-16T09:38:23;23.40;99.90
20233;DHT22;37438;55.674;13.074;2023-07-16T09:41:28;23.40;99.90
20233;DHT22;37438;55.674;13.074;2023-07-16T09:44:33;23.20;99.90
20233;DHT22;37438;55.674;13.074;2023-07-16T09:47:38;23.60;99.90
20233;DHT22;37438;55.674;13.074;2023-07-16T09:50:45;23.10;99.90
20233;DHT22;37438;55.674;13.074;2023-07-16T09:53:53;23.80;1.00
20233;DHT22;37438;55.674;13.074;2023-07-16T09:56:59;24.30;13.70
20233;DHT22;37438;55.674;13.074;2023-07-16T10:00:06;23.80;70.30
20233;DHT22;37438;55.674;13.074;2023-07-16T10:03:15;24.30;1.00
20233;DHT22;37438;55.674;13.074;2023-07-16T10:06:24;23.90;99.90
20233;DHT22;37438;55.674;13.074;2023-07-16T10:12:36;23.70;99.90
20233;DHT22;37438;55.674;13.074;2023-07-16T10:15:51;23.90;99.90
20233;DHT22;37438;55.674;13.074;2023-07-16T10:18:57;23.90;99.90
20233;DHT22;37438;55.674;13.074;2023-07-16T10:22:03;24.10;99.90
20233;DHT22;37438;55.674;13.074;2023-07-16T10:28:11;24.40;99.90
20233;DHT22;37438;55.674;13.074;2023-07-16T10:31:17;24.20;99.90
20233;DHT22;37438;55.674;13.074;2023-07-16T10:34:22;24.30;99.90
20233;DHT22;37438;55.674;13.074;2023-07-16T10:37:27;24.50;99.90
20233;DHT22;37438;55.674;13.074;2023-07-16T10:40:32;24.20;99.90
20233;DHT22;37438;55.674;13.074;2023-07-16T10:43:36;24.90;99.90
20233;DHT22;37438;55.674;13.074;2023-07-16T10:46:44;24.10;99.90
20233;DHT22;37438;55.674;13.074;2023-07-16T10:49:48;24.60;99.90
20233;DHT22;37438;55.674;13.074;2023-07-16T10:52:53;24.00;99.90
20233;DHT22;37438;55.674;13.074;2023-07-16T10:55:58;24.00;1.00
20233;DHT22;37438;55.674;13.074;2023-07-16T10:59:04;23.80;1.00
20233;DHT22;37438;55.674;13.074;2023-07-16T11:02:08;24.40;1.00
20233;DHT22;37438;55.674;13.074;2023-07-16T11:05:18;24.50;99.90
20233;DHT22;37438;55.674;13.074;2023-07-16T11:08:23;24.70;99.90
20233;DHT22;37438;55.674;13.074;2023-07-16T11:11:28;24.40;99.90
20233;DHT22;37438;55.674;13.074;2023-07-16T11:14:33;25.10;28.10
20233;DHT22;37438;55.674;13.074;2023-07-16T11:17:38;24.60;99.90
20233;DHT22;37438;55.674;13.074;2023-07-16T11:20:43;24.40;99.90
20233;DHT22;37438;55.674;13.074;2023-07-16T11:23:48;24.00;99.90
20233;DHT22;37438;55.674;13.074;2023-07-16T11:26:53;22.90;20.90
20233;DHT22;37438;55.674;13.074;2023-07-16T11:29:59;23.30;61.60
20233;DHT22;37438;55.674;13.074;2023-07-16T11:33:03;23.90;1.40
20233;DHT22;37438;55.674;13.074;2023-07-16T11:36:13;23.80;1.00
20233;DHT22;37438;55.674;13.074;2023-07-16T11:39:19;23.60;1.00
20233;DHT22;37438;55.674;13.074;2023-07-16T11:42:28;24.20;99.90
20233;DHT22;37438;55.674;13.074;2023-07-16T11:45:32;23.90;99.90
20233;DHT22;37438;55.674;13.074;2023-07-16T11:48:37;24.10;99.90
20233;DHT22;37438;55.674;13.074;2023-07-16T11:51:42;23.60;1.00
20233;DHT22;37438;55.674;13.074;2023-07-16T11:54:48;24.10;99.90
20233;DHT22;37438;55.674;13.074;2023-07-16T11:57:53;24.00;2.90
20233;DHT22;37438;55.674;13.074;2023-07-16T12:00:57;24.60;1.00
20233;DHT22;37438;55.674;13.074;2023-07-16T12:04:02;24.60;99.90
20233;DHT22;37438;55.674;13.074;2023-07-16T12:07:07;24.50;99.90
20233;DHT22;37438;55.674;13.074;2023-07-16T12:10:11;25.00;99.90
20233;DHT22;37438;55.674;13.074;2023-07-16T12:13:16;24.40;99.90
20233;DHT22;37438;55.674;13.074;2023-07-16T12:16:21;25.70;85.70
20233;DHT22;37438;55.674;13.074;2023-07-16T12:19:25;25.20;54.80
20233;DHT22;37438;55.674;13.074;2023-07-16T12:22:30;25.40;50.00
20233;DHT22;37438;55.674;13.074;2023-07-16T12:25:34;24.60;49.90
20233;DHT22;37438;55.674;13.074;2023-07-16T12:28:40;24.60;99.90
20233;DHT22;37438;55.674;13.074;2023-07-16T12:31:44;25.10;12.70
20233;DHT22;37438;55.674;13.074;2023-07-16T12:34:49;25.50;1.00
20233;DHT22;37438;55.674;13.074;2023-07-16T12:37:53;25.30;1.00
20233;DHT22;37438;55.674;13.074;2023-07-16T12:40:58;24.90;1.00
20233;DHT22;37438;55.674;13.074;2023-07-16T12:44:03;24.90;12.30
20233;DHT22;37438;55.674;13.074;2023-07-16T12:47:07;25.30;1.00
20233;DHT22;37438;55.674;13.074;2023-07-16T12:50:15;24.70;1.00
20233;DHT22;37438;55.674;13.074;2023-07-16T12:53:20;25.20;1.00
20233;DHT22;37438;55.674;13.074;2023-07-16T12:56:24;25.20;1.00
20233;DHT22;37438;55.674;13.074;2023-07-16T12:59:29;25.50;1.00
20233;DHT22;37438;55.674;13.074;2023-07-16T13:02:34;25.20;1.00
20233;DHT22;37438;55.674;13.074;2023-07-16T13:05:38;25.20;1.00
20233;DHT22;37438;55.674;13.074;2023-07-16T13:08:43;25.30;1.00
20233;DHT22;37438;55.674;13.074;2023-07-16T13:11:47;25.40;1.00
20233;DHT22;37438;55.674;13.074;2023-07-16T13:14:52;25.10;1.00
20233;DHT22;37438;55.674;13.074;2023-07-16T13:17:56;24.80;1.00
20233;DHT22;37438;55.674;13.074;2023-07-16T13:21:01;24.90;1.00
20233;DHT22;37438;55.674;13.074;2023-07-16T13:24:05;25.00;1.00
20233;DHT22;37438;55.674;13.074;2023-07-16T13:27:19;24.40;26.70
20233;DHT22;37438;55.674;13.074;2023-07-16T13:30:24;24.70;1.00
20233;DHT22;37438;55.674;13.074;2023-07-16T13:33:29;24.90;25.50
20233;DHT22;37438;55.674;13.074;2023-07-16T13:36:34;25.00;46.80
20233;DHT22;37438;55.674;13.074;2023-07-16T13:39:39;24.30;99.90
20233;DHT22;37438;55.674;13.074;2023-07-16T13:42:43;24.60;99.90
20233;DHT22;37438;55.674;13.074;2023-07-16T13:45:48;25.10;99.70
20233;DHT22;37438;55.674;13.074;2023-07-16T13:48:52;25.30;93.60
20233;DHT22;37438;55.674;13.074;2023-07-16T13:52:03;25.10;79.90
20233;DHT22;37438;55.674;13.074;2023-07-16T13:55:07;25.10;99.90
20233;DHT22;37438;55.674;13.074;2023-07-16T13:58:12;24.90;99.90
20233;DHT22;37438;55.674;13.074;2023-07-16T14:01:16;25.50;99.90
20233;DHT22;37438;55.674;13.074;2023-07-16T14:04:22;25.00;88.30
20233;DHT22;37438;55.674;13.074;2023-07-16T14:07:27;24.60;99.90
20233;DHT22;37438;55.674;13.074;2023-07-16T14:10:32;24.50;99.90
20233;DHT22;37438;55.674;13.074;2023-07-16T14:13:36;24.40;99.90
20233;DHT22;37438;55.674;13.074;2023-07-16T14:16:41;24.50;99.90
20233;DHT22;37438;55.674;13.074;2023-07-16T14:19:45;24.70;99.90
20233;DHT22;37438;55.674;13.074;2023-07-16T14:22:50;24.70;1.00
20233;DHT22;37438;55.674;13.074;2023-07-16T14:25:54;24.60;18.90
20233;DHT22;37438;55.674;13.074;2023-07-16T14:28:59;24.40;56.70
20233;DHT22;37438;55.674;13.074;2023-07-16T14:32:04;24.60;1.00
20233;DHT22;37438;55.674;13.074;2023-07-16T14:35:09;24.40;99.90
20233;DHT22;37438;55.674;13.074;2023-07-16T14:38:34;24.80;1.00
20233;DHT22;37438;55.674;13.074;2023-07-16T14:41:39;24.50;33.40
20233;DHT22;37438;55.674;13.074;2023-07-16T14:44:44;24.30;99.90
20233;DHT22;37438;55.674;13.074;2023-07-16T14:47:48;24.00;99.90
20233;DHT22;37438;55.674;13.074;2023-07-16T14:50:53;24.10;1.00
20233;DHT22;37438;55.674;13.074;2023-07-16T14:53:57;23.70;99.90
20233;DHT22;37438;55.674;13.074;2023-07-16T14:57:01;24.00;71.00
20233;DHT22;37438;55.674;13.074;2023-07-16T15:00:07;23.70;99.90
20233;DHT22;37438;55.674;13.074;2023-07-16T15:03:16;23.60;99.90
20233;DHT22;37438;55.674;13.074;2023-07-16T15:06:20;24.40;99.90
20233;DHT22;37438;55.674;13.074;2023-07-16T15:09:25;24.00;99.90
20233;DHT22;37438;55.674;13.074;2023-07-16T15:12:30;23.40;99.40
20233;DHT22;37438;55.674;13.074;2023-07-16T15:15:35;23.90;1.00
20233;DHT22;37438;55.674;13.074;2023-07-16T15:18:39;23.30;99.90
20233;DHT22;37438;55.674;13.074;2023-07-16T15:21:44;23.90;40.00
20233;DHT22;37438;55.674;13.074;2023-07-16T15:24:49;23.50;99.90
20233;DHT22;37438;55.674;13.074;2023-07-16T15:27:54;24.10;99.90
20233;DHT22;37438;55.674;13.074;2023-07-16T15:30:58;23.50;68.40
20233;DHT22;37438;55.674;13.074;2023-07-16T15:34:03;23.90;99.90
20233;DHT22;37438;55.674;13.074;2023-07-16T15:37:07;24.60;1.00
20233;DHT22;37438;55.674;13.074;2023-07-16T15:40:13;25.00;99.90
20233;DHT22;37438;55.674;13.074;2023-07-16T15:43:18;25.50;1.00
20233;DHT22;37438;55.674;13.074;2023-07-16T15:46:23;25.60;99.90
20233;DHT22;37438;55.674;13.074;2023-07-16T15:49:27;25.20;1.00
20233;DHT22;37438;55.674;13.074;2023-07-16T15:52:32;23.80;99.90
20233;DHT22;37438;55.674;13.074;2023-07-16T15:55:37;22.60;99.90
20233;DHT22;37438;55.674;13.074;2023-07-16T15:58:42;23.60;99.90
20233;DHT22;37438;55.674;13.074;2023-07-16T16:01:46;24.40;99.90
20233;DHT22;37438;55.674;13.074;2023-07-16T16:04:51;24.40;72.70
20233;DHT22;37438;55.674;13.074;2023-07-16T16:08:14;25.00;99.90
20233;DHT22;37438;55.674;13.074;2023-07-16T16:11:19;23.80;99.90
20233;DHT22;37438;55.674;13.074;2023-07-16T16:14:25;24.10;72.70
20233;DHT22;37438;55.674;13.074;2023-07-16T16:17:33;24.10;7.80
20233;DHT22;37438;55.674;13.074;2023-07-16T16:20:38;24.60;99.90
20233;DHT22;37438;55.674;13.074;2023-07-16T16:23:43;25.00;99.90
20233;DHT22;37438;55.674;13.074;2023-07-16T16:26:47;24.60;99.90
20233;DHT22;37438;55.674;13.074;2023-07-16T16:29:52;25.10;99.90
20233;DHT22;37438;55.674;13.074;2023-07-16T16:32:56;25.10;99.90
20233;DHT22;37438;55.674;13.074;2023-07-16T16:36:09;24.40;99.90
20233;DHT22;37438;55.674;13.074;2023-07-16T16:39:15;24.90;99.90
20233;DHT22;37438;55.674;13.074;2023-07-16T16:42:20;24.80;99.90
20233;DHT22;37438;55.674;13.074;2023-07-16T16:45:24;24.10;99.90
20233;DHT22;37438;55.674;13.074;2023-07-16T16:48:29;24.20;99.90
20233;DHT22;37438;55.674;13.074;2023-07-16T16:51:40;23.60;99.90
20233;DHT22;37438;55.674;13.074;2023-07-16T16:54:44;22.40;99.90
20233;DHT22;37438;55.674;13.074;2023-07-16T16:57:49;22.10;99.90
20233;DHT22;37438;55.674;13.074;2023-07-16T17:00:53;21.80;11.80
20233;DHT22;37438;55.674;13.074;2023-07-16T17:04:00;21.60;99.90
20233;DHT22;37438;55.674;13.074;2023-07-16T17:07:05;21.50;99.90
20233;DHT22;37438;55.674;13.074;2023-07-16T17:10:11;21.50;99.90
20233;DHT22;37438;55.674;13.074;2023-07-16T17:13:16;21.40;99.90
20233;DHT22;37438;55.674;13.074;2023-07-16T17:16:20;21.20;99.90
20233;DHT22;37438;55.674;13.074;2023-07-16T17:19:25;21.10;99.90
20233;DHT22;37438;55.674;13.074;2023-07-16T17:22:29;21.20;1.00
20233;DHT22;37438;55.674;13.074;2023-07-16T17:25:34;21.20;1.00
20233;DHT22;37438;55.674;13.074;2023-07-16T17:28:38;21.40;98.60
20233;DHT22;37438;55.674;13.074;2023-07-16T17:31:43;21.40;99.90
20233;DHT22;37438;55.674;13.074;2023-07-16T17:34:48;21.30;99.90
20233;DHT22;37438;55.674;13.074;2023-07-16T17:37:52;21.40;31.20
20233;DHT22;37438;55.674;13.074;2023-07-16T17:40:58;21.30;99.90
20233;DHT22;37438;55.674;13.074;2023-07-16T17:44:02;21.30;99.90
20233;DHT22;37438;55.674;13.074;2023-07-16T17:47:07;21.10;99.90
20233;DHT22;37438;55.674;13.074;2023-07-16T17:50:11;21.10;99.90
20233;DHT22;37438;55.674;13.074;2023-07-16T17:53:16;20.90;99.90
20233;DHT22;37438;55.674;13.074;2023-07-16T17:56:20;21.00;99.90
20233;DHT22;37438;55.674;13.074;2023-07-16T17:59:25;21.10;99.90
20233;DHT22;37438;55.674;13.074;2023-07-16T18:02:30;21.00;92.60
20233;DHT22;37438;55.674;13.074;2023-07-16T18:05:34;21.10;1.00
20233;DHT22;37438;55.674;13.074;2023-07-16T18:08:39;21.00;99.90
20233;DHT22;37438;55.674;13.074;2023-07-16T18:11:46;21.00;99.90
20233;DHT22;37438;55.674;13.074;2023-07-16T18:14:50;21.00;97.20
20233;DHT22;37438;55.674;13.074;2023-07-16T18:17:55;21.00;99.90
20233;DHT22;37438;55.674;13.074;2023-07-16T18:21:00;21.00;99.90
20233;DHT22;37438;55.674;13.074;2023-07-16T18:24:12;21.00;99.90
20233;DHT22;37438;55.674;13.074;2023-07-16T18:27:17;20.80;99.90
20233;DHT22;37438;55.674;13.074;2023-07-16T18:30:21;20.70;90.10
20233;DHT22;37438;55.674;13.074;2023-07-16T18:33:25;20.70;72.70
20233;DHT22;37438;55.674;13.074;2023-07-16T18:36:30;20.70;1.00
20233;DHT22;37438;55.674;13.074;2023-07-16T18:39:34;20.60;1.00
20233;DHT22;37438;55.674;13.074;2023-07-16T18:42:39;20.50;99.90
20233;DHT22;37438;55.674;13.074;2023-07-16T18:45:44;20.50;99.90
20233;DHT22;37438;55.674;13.074;2023-07-16T18:48:48;20.50;99.90
20233;DHT22;37438;55.674;13.074;2023-07-16T18:51:53;20.50;99.90
20233;DHT22;37438;55.674;13.074;2023-07-16T18:54:58;20.50;53.50
20233;DHT22;37438;55.674;13.074;2023-07-16T18:58:02;20.50;99.90
20233;DHT22;37438;55.674;13.074;2023-07-16T19:01:08;20.40;99.90
20233;DHT22;37438;55.674;13.074;2023-07-16T19:04:13;20.40;94.40
20233;DHT22;37438;55.674;13.074;2023-07-16T19:07:17;20.40;99.90
20233;DHT22;37438;55.674;13.074;2023-07-16T19:10:22;20.40;99.90
20233;DHT22;37438;55.674;13.074;2023-07-16T19:13:27;20.30;1.00
20233;DHT22;37438;55.674;13.074;2023-07-16T19:16:31;20.30;58.30
20233;DHT22;37438;55.674;13.074;2023-07-16T19:19:36;20.30;99.90
20233;DHT22;37438;55.674;13.074;2023-07-16T19:22:40;20.20;99.90
20233;DHT22;37438;55.674;13.074;2023-07-16T19:25:49;20.20;99.90
20233;DHT22;37438;55.674;13.074;2023-07-16T19:28:54;20.10;32.90